Time;durP1;ratioP1;P1;durP2;ratioP2;P2;SDS_P1;SDS_P2;PMS_P1;PMS_P2;Temp;Humidity;BMP_temperature;BMP_pressure;BME280_temperature;BME280_humidity;BME280_pressure;Samples;Min_cycle;Max_cycle;Signal;HPM_P1;HPM_P2
2022/09/09 00:02:08;;;;;;;11.68;5.70;;;;;;;15.29;nan;100532.09;5051151;28;20090;-56
2022/09/09 00:04:36;;;;;;;7.35;5.57;;;;;;;14.96;nan;100468.56;5050904;28;20039;-56
2022/09/09 00:07:16;;;;;;;7.40;6.10;;;;;;;15.26;nan;100522.53;5052161;28;20044;-60
2022/09/09 00:09:48;;;;;;;7.97;6.00;;;;;;;15.20;nan;100521.06;5034140;28;20045;-60
2022/09/09 00:12:32;;;;;;;7.88;6.57;;;;;;;15.02;nan;100490.28;5051091;28;20033;-57
2022/09/09 00:15:20;;;;;;;8.07;7.00;;;;;;;15.15;nan;100517.81;5050884;28;20037;-59
2022/09/09 00:17:56;;;;;;;10.20;7.07;;;;;;;15.01;nan;100493.00;5051946;28;20061;-56
2022/09/09 00:20:40;;;;;;;10.82;7.25;;;;;;;15.06;nan;100526.25;5050100;28;20043;-60
2022/09/09 00:23:28;;;;;;;12.75;7.38;;;;;;;14.72;nan;100464.63;5051164;28;20028;-54
2022/09/09 00:26:04;;;;;;;10.77;7.47;;;;;;;14.70;nan;100469.16;5051195;28;20118;-55
2022/09/09 00:28:34;;;;;;;9.93;7.10;;;;;;;14.81;nan;100511.81;5051442;28;20044;-58
2022/09/09 00:31:15;;;;;;;12.52;6.95;;;;;;;14.96;nan;100530.38;5050008;28;20021;-54
2022/09/09 00:33:42;;;;;;;11.23;7.75;;;;;;;14.70;nan;100480.63;5051441;28;20388;-55
2022/09/09 00:36:15;;;;;;;13.85;7.65;;;;;;;14.88;nan;100522.00;5034434;28;20118;-59
2022/09/09 00:38:45;;;;;;;14.00;8.25;;;;;;;14.85;nan;100516.88;5051759;28;20033;-56
2022/09/09 00:41:59;;;;;;;12.00;8.35;;;;;;;14.83;nan;100508.13;5050680;28;20032;-56
2022/09/09 00:44:31;;;;;;;11.05;8.63;;;;;;;14.63;nan;100477.44;5009931;28;20042;-56
2022/09/09 00:47:07;;;;;;;13.02;8.85;;;;;;;14.72;nan;100509.66;5056781;28;20476;-59
2022/09/09 00:50:03;;;;;;;12.52;8.55;;;;;;;14.68;nan;100506.34;5050493;28;20079;-55
2022/09/09 00:52:46;;;;;;;12.25;8.40;;;;;;;14.64;nan;100510.94;5050682;28;20033;-59
2022/09/09 00:55:36;;;;;;;15.98;9.98;;;;;;;14.60;nan;100498.78;5050343;28;20040;-62
2022/09/09 00:58:01;;;;;;;16.65;9.77;;;;;;;-142.64;100.00;58178.75;5036373;28;20021;-57
2022/09/09 01:00:30;;;;;;;13.98;9.57;;;;;;;-142.64;100.00;58178.75;5055502;28;20538;-58
2022/09/09 01:03:02;;;;;;;15.43;9.82;;;;;;;-142.64;100.00;58178.75;5037473;28;20079;-56
2022/09/09 01:05:34;;;;;;;16.42;10.25;;;;;;;-142.64;100.00;58178.75;5054386;28;20033;-58
2022/09/09 01:08:02;;;;;;;16.17;10.48;;;;;;;-142.64;100.00;58178.75;5052868;28;20044;-61
2022/09/09 01:10:49;;;;;;;13.77;10.23;;;;;;;-142.64;100.00;58178.75;5053263;28;20480;-57
2022/09/09 01:13:22;;;;;;;18.17;11.68;;;;;;;14.19;nan;100486.88;5054072;28;20538;-55
2022/09/09 01:15:48;;;;;;;15.73;10.50;;;;;;;14.32;nan;100492.38;5053622;28;20032;-57
2022/09/09 01:18:17;;;;;;;15.05;11.68;;;;;;;14.27;nan;100489.13;5053697;28;20069;-59
2022/09/09 01:20:57;;;;;;;18.30;12.15;;;;;;;13.94;nan;100426.47;5055145;28;20314;-57
2022/09/09 01:23:44;;;;;;;16.43;11.60;;;;;;;14.28;nan;100482.88;5055053;28;20519;-55
2022/09/09 01:26:29;;;;;;;15.20;12.27;;;;;;;14.28;nan;100482.88;5054667;28;20694;-55
2022/09/09 01:28:54;;;;;;;14.40;10.90;;;;;;;13.90;nan;100416.97;5053709;28;20033;-61
2022/09/09 01:31:37;;;;;;;16.58;12.48;;;;;;;14.25;nan;100477.75;5054946;28;20414;-59
2022/09/09 01:34:09;;;;;;;20.38;14.13;;;;;;;13.89;nan;100409.94;5055042;28;20033;-55
2022/09/09 01:36:39;;;;;;;14.43;12.82;;;;;;;13.87;nan;100410.97;5053417;28;20464;-57
2022/09/09 01:39:04;;;;;;;17.25;14.05;;;;;;;14.22;nan;100476.13;5053409;28;20456;-60
2022/09/09 01:41:30;;;;;;;18.95;14.38;;;;;;;14.15;nan;100456.22;5054824;28;20033;-58
2022/09/09 01:43:56;;;;;;;22.17;15.52;;;;;;;14.01;nan;100437.53;5053487;28;20033;-56
2022/09/09 01:46:22;;;;;;;17.55;14.45;;;;;;;14.10;nan;100451.16;5036670;28;20393;-56
2022/09/09 01:48:49;;;;;;;18.55;15.02;;;;;;;14.12;nan;100464.31;5054481;28;20095;-60
2022/09/09 01:51:14;;;;;;;17.88;14.45;;;;;;;13.70;nan;100388.03;5053577;28;20087;-60
2022/09/09 01:53:41;;;;;;;22.60;14.57;;;;;;;13.69;nan;100404.84;5052978;28;20480;-60
2022/09/09 01:56:13;;;;;;;21.83;15.45;;;;;;;14.02;nan;100461.31;5053146;28;20488;-57
2022/09/09 01:59:00;;;;;;;21.58;15.43;;;;;;;14.02;nan;100466.59;5053018;28;20035;-57
2022/09/09 02:01:34;;;;;;;18.90;14.02;;;;;;;14.02;nan;100463.09;5054346;28;20060;-57
2022/09/09 02:04:03;;;;;;;20.95;14.35;;;;;;;14.02;nan;100461.31;5054067;28;20063;-53
2022/09/09 02:06:34;;;;;;;17.00;13.38;;;;;;;14.02;nan;100460.44;5053426;28;20044;-57
2022/09/09 02:09:01;;;;;;;18.30;14.30;;;;;;;13.72;nan;100412.63;5052615;28;20492;-59
2022/09/09 02:11:28;;;;;;;18.40;13.73;;;;;;;14.01;nan;100461.38;5054028;28;20028;-58
2022/09/09 02:13:57;;;;;;;18.00;13.43;;;;;;;13.96;nan;100447.53;5053911;28;20407;-54
2022/09/09 02:16:25;;;;;;;16.77;12.85;;;;;;;14.02;nan;100452.50;5052834;28;20086;-58
2022/09/09 02:19:03;;;;;;;17.30;12.60;;;;;;;13.72;nan;100402.03;5054430;28;20032;-58
2022/09/09 02:21:29;;;;;;;19.15;12.07;;;;;;;13.53;nan;100381.00;5054044;28;20036;-59
2022/09/09 02:23:57;;;;;;;18.63;11.38;;;;;;;13.72;nan;100407.34;5053984;28;20400;-58
2022/09/09 02:26:23;;;;;;;16.85;10.85;;;;;;;13.99;nan;100456.16;5052785;28;20037;-53
2022/09/09 02:28:50;;;;;;;16.55;10.70;;;;;;;13.95;nan;100435.25;5053745;28;20037;-61
2022/09/09 02:31:18;;;;;;;15.60;9.40;;;;;;;13.87;nan;100411.81;5052829;28;20036;-59
2022/09/09 02:33:48;;;;;;;13.38;9.35;;;;;;;14.01;nan;100446.34;5052479;28;20390;-60
2022/09/09 02:36:16;;;;;;;16.65;8.82;;;;;;;14.01;100.00;100428.00;5052563;28;20064;-60
2022/09/09 02:38:45;;;;;;;14.95;8.48;;;;;;;-142.64;100.00;58178.75;5052291;28;20582;-57
2022/09/09 02:41:11;;;;;;;10.82;7.22;;;;;;;-142.64;100.00;58178.75;5052514;28;20031;-61
2022/09/09 02:43:37;;;;;;;9.80;6.60;;;;;;;-142.64;100.00;58178.75;5052007;28;20033;-58
2022/09/09 02:46:19;;;;;;;8.05;6.25;;;;;;;-142.64;100.00;58178.75;5052404;28;20116;-56
2022/09/09 02:48:52;;;;;;;10.25;6.15;;;;;;;-142.64;100.00;58178.75;5053220;28;20056;-58
2022/09/09 02:51:24;;;;;;;9.43;6.50;;;;;;;-142.64;100.00;58178.75;5052043;28;20029;-56
2022/09/09 02:53:59;;;;;;;14.73;6.90;;;;;;;-142.64;100.00;58178.75;5052100;28;20025;-57
2022/09/09 02:56:28;;;;;;;9.23;5.75;;;;;;;-142.64;100.00;58178.75;5052492;28;20461;-56
2022/09/09 02:58:54;;;;;;;13.38;6.03;;;;;;;-142.64;100.00;58178.75;5053493;28;20063;-56
2022/09/09 03:01:20;;;;;;;9.23;6.10;;;;;;;-142.64;100.00;58178.75;5053310;28;20454;-54
2022/09/09 03:03:46;;;;;;;10.75;6.07;;;;;;;-142.64;100.00;58178.75;5053332;28;20040;-58
2022/09/09 03:06:12;;;;;;;11.13;5.53;;;;;;;22.55;100.00;58178.75;5053126;28;20477;-57
2022/09/09 03:08:37;;;;;;;11.45;5.85;;;;;;;-142.64;100.00;58178.75;5051581;28;20080;-54
2022/09/09 03:11:03;;;;;;;11.68;6.00;;;;;;;-142.64;100.00;58178.75;5053160;28;20087;-58
2022/09/09 03:13:28;;;;;;;11.13;5.50;;;;;;;-142.64;100.00;58178.75;5051672;28;20400;-57
2022/09/09 03:15:54;;;;;;;11.48;6.05;;;;;;;-142.64;100.00;58178.75;5053049;28;20434;-57
2022/09/09 03:18:19;;;;;;;12.55;5.97;;;;;;;-142.64;100.00;58178.75;5052863;28;20037;-57
2022/09/09 03:20:48;;;;;;;8.02;5.25;;;;;;;-142.64;100.00;58178.75;5051200;28;20048;-57
2022/09/09 03:23:13;;;;;;;10.02;5.35;;;;;;;-142.64;100.00;58178.75;5052826;28;20121;-56
2022/09/09 03:25:39;;;;;;;7.93;4.82;;;;;;;-142.64;100.00;58178.75;5051697;28;20120;-56
2022/09/09 03:28:04;;;;;;;11.20;4.53;;;;;;;-142.64;100.00;58178.75;5052711;28;20116;-53
2022/09/09 03:30:30;;;;;;;8.02;4.55;;;;;;;-142.64;100.00;58178.75;5052705;28;20044;-55
2022/09/09 03:32:55;;;;;;;9.23;5.03;;;;;;;-142.64;100.00;58178.75;5051692;28;20420;-57
2022/09/09 03:35:20;;;;;;;10.20;4.40;;;;;;;-142.64;100.00;58178.75;5034782;28;20159;-56
2022/09/09 03:37:46;;;;;;;7.05;4.10;;;;;;;-142.64;100.00;58178.75;5052503;28;20036;-57
2022/09/09 03:40:11;;;;;;;14.50;4.88;;;;;;;-142.64;100.00;58178.75;5052645;28;20029;-55
2022/09/09 03:42:38;;;;;;;6.20;4.25;;;;;;;13.42;nan;100358.69;5052399;28;20029;-56
2022/09/09 03:45:08;;;;;;;8.32;4.18;;;;;;;13.45;nan;100359.41;5052376;28;20048;-58
2022/09/09 03:47:34;;;;;;;8.70;4.70;;;;;;;13.75;nan;100409.81;5051209;28;20033;-57
2022/09/09 03:49:59;;;;;;;9.68;5.00;;;;;;;13.39;nan;100349.13;5050928;28;20223;-61
2022/09/09 03:52:26;;;;;;;9.55;4.50;;;;;;;13.74;nan;100408.13;5052188;28;20557;-56
2022/09/09 03:54:51;;;;;;;8.35;4.63;;;;;;;13.73;nan;100410.84;5051275;28;20052;-59
2022/09/09 03:57:16;;;;;;;7.47;4.10;;;;;;;13.73;nan;100413.47;5052688;28;20061;-56
2022/09/09 03:59:42;;;;;;;8.38;4.30;;;;;;;13.64;nan;100404.22;5052405;28;20404;-59
2022/09/09 04:02:08;;;;;;;10.18;4.05;;;;;;;13.64;nan;100390.16;5034582;28;20037;-61
2022/09/09 04:04:34;;;;;;;7.50;3.85;;;;;;;13.73;nan;100406.41;5050986;28;20040;-56
2022/09/09 04:06:59;;;;;;;10.27;4.60;;;;;;;13.73;nan;100392.31;5051906;28;20143;-58
2022/09/09 04:09:24;;;;;;;11.25;5.22;;;;;;;13.76;nan;100397.44;5052135;28;20037;-54
2022/09/09 04:11:50;;;;;;;13.35;4.50;;;;;;;13.70;nan;100384.53;5052329;28;20041;-55
2022/09/09 04:14:15;;;;;;;7.38;4.15;;;;;;;13.76;nan;100395.66;5050823;28;20113;-59
2022/09/09 04:16:44;;;;;;;8.93;4.38;;;;;;;13.75;nan;100404.53;5052025;28;20044;-55
2022/09/09 04:19:12;;;;;;;11.05;4.63;;;;;;;13.75;nan;100391.31;5051975;28;20396;-56
2022/09/09 04:21:39;;;;;;;8.00;4.20;;;;;;;13.39;nan;100325.34;5051849;28;20029;-56
2022/09/09 04:24:05;;;;;;;7.13;4.32;;;;;;;13.04;nan;100265.50;5052240;28;20484;-56
2022/09/09 04:26:30;;;;;;;7.88;4.45;;;;;;;13.31;nan;100297.59;5051832;28;20065;-54
2022/09/09 04:28:56;;;;;;;10.90;5.13;;;;;;;13.61;nan;100348.84;5051960;28;20123;-56
2022/09/09 04:31:23;;;;;;;9.90;4.70;;;;;;;13.49;nan;100330.97;5053628;28;20025;-56
2022/09/09 04:33:49;;;;;;;8.93;4.20;;;;;;;13.78;nan;100369.13;5054752;28;20037;-61
2022/09/09 04:36:15;;;;;;;10.65;4.78;;;;;;;13.64;nan;100361.91;5055764;28;20072;-56
2022/09/09 04:38:40;;;;;;;8.20;4.63;;;;;;;13.76;nan;100379.78;5038115;28;20068;-56
2022/09/09 04:41:07;;;;;;;9.48;4.40;;;;;;;13.62;nan;100355.88;5055872;28;20029;-59
2022/09/09 04:43:32;;;;;;;6.38;4.30;;;;;;;13.71;nan;100379.19;5054637;28;20435;-55
2022/09/09 04:45:59;;;;;;;6.93;3.58;;;;;;;13.64;nan;100356.63;5055751;28;20095;-53
2022/09/09 04:48:25;;;;;;;9.50;5.32;;;;;;;13.42;nan;100314.59;5055996;28;20045;-57
2022/09/09 04:50:57;;;;;;;12.52;4.53;;;;;;;13.76;nan;100368.34;5055522;28;20036;-59
2022/09/09 04:53:22;;;;;;;7.18;4.07;;;;;;;13.70;nan;100356.31;5055379;28;20396;-54
2022/09/09 04:55:49;;;;;;;13.85;4.35;;;;;;;12.76;nan;100178.00;5054247;28;20121;-56
2022/09/09 04:58:14;;;;;;;8.93;3.42;;;;;;;13.81;nan;100368.97;5055690;28;20388;-59
2022/09/09 05:00:39;;;;;;;10.07;4.00;;;;;;;13.42;nan;100293.47;5055597;28;20041;-57
2022/09/09 05:03:05;;;;;;;8.68;3.53;;;;;;;13.74;nan;100354.38;5055714;28;20036;-57
2022/09/09 05:05:33;;;;;;;8.23;3.80;;;;;;;13.44;nan;100303.94;5053996;28;20071;-57
2022/09/09 05:08:03;;;;;;;8.50;4.20;;;;;;;13.45;nan;100305.66;5054874;28;20045;-58
2022/09/09 05:10:28;;;;;;;11.32;4.65;;;;;;;13.39;nan;100293.63;5055367;28;20037;-57
2022/09/09 05:12:54;;;;;;;9.48;3.70;;;;;;;13.85;nan;100366.09;5055240;28;20041;-59
2022/09/09 05:15:20;;;;;;;9.40;4.35;;;;;;;13.49;nan;100293.97;5054136;28;20119;-56
2022/09/09 05:17:46;;;;;;;9.30;4.13;;;;;;;13.85;nan;100360.78;5054929;28;20507;-53
2022/09/09 05:20:11;;;;;;;8.43;3.97;;;;;;;13.87;nan;100356.25;5037327;28;20029;-56
2022/09/09 05:22:37;;;;;;;9.98;4.50;;;;;;;12.89;nan;100198.44;5037269;28;20037;-58
2022/09/09 05:25:03;;;;;;;7.38;4.78;;;;;;;13.66;nan;100304.50;5054755;28;20033;-57
2022/09/09 05:27:31;;;;;;;9.88;4.25;;;;;;;13.96;nan;100352.28;5054958;28;20037;-57
2022/09/09 05:29:57;;;;;;;9.13;3.90;;;;;;;13.95;nan;100335.53;5053731;28;20124;-56
2022/09/09 05:32:22;;;;;;;12.60;5.00;;;;;;;14.04;nan;100344.75;5053468;28;20032;-56
2022/09/09 05:34:48;;;;;;;10.80;5.15;;;;;;;14.08;nan;100347.19;5053946;28;20041;-55
2022/09/09 05:37:13;;;;;;;9.93;3.92;;;;;;;14.15;nan;100336.25;5053517;28;20044;-59
2022/09/09 05:39:38;;;;;;;9.77;4.47;;;;;;;14.34;nan;100344.91;5053336;28;20098;-55
2022/09/09 05:42:04;;;;;;;7.82;4.50;;;;;;;14.45;nan;100345.16;5054309;28;20043;-57
2022/09/09 05:44:30;;;;;;;9.00;3.50;;;;;;;14.52;nan;100343.91;5054094;28;20037;-57
2022/09/09 05:46:55;;;;;;;10.23;4.40;;;;;;;14.25;nan;100289.78;5054349;28;20032;-60
2022/09/09 05:49:21;;;;;;;9.65;3.72;;;;;;;14.36;nan;100287.47;5053255;28;20124;-50
2022/09/09 05:51:47;;;;;;;7.18;3.40;;;;;;;14.62;nan;100323.91;5053868;28;20033;-62
2022/09/09 05:54:15;;;;;;;8.20;3.60;;;;;;;14.60;nan;100286.91;5053277;28;20494;-56
2022/09/09 05:56:40;;;;;;;11.68;3.17;;;;;;;15.03;nan;100353.31;5053149;28;20053;-51
2022/09/09 05:59:06;;;;;;;4.53;3.13;;;;;;;15.01;nan;100332.19;5053027;28;20495;-55
2022/09/09 06:01:34;;;;;;;8.20;3.13;;;;;;;14.82;nan;100293.59;5053859;28;20472;-55
2022/09/09 06:03:59;;;;;;;8.07;3.40;;;;;;;14.28;nan;100202.25;5036549;28;20071;-55
2022/09/09 06:06:27;;;;;;;9.48;3.17;;;;;;;15.02;nan;100318.00;5054307;28;20096;-57
2022/09/09 06:08:54;;;;;;;7.38;3.38;;;;;;;15.29;nan;100343.81;5053777;28;20064;-60
2022/09/09 06:11:22;;;;;;;8.00;3.25;;;;;;;15.01;nan;100304.81;5054188;28;20043;-60
2022/09/09 06:13:50;;;;;;;8.23;3.40;;;;;;;15.40;nan;100363.47;5053876;28;20033;-61
2022/09/09 06:16:18;;;;;;;9.43;3.42;;;;;;;15.04;nan;100308.16;5052552;28;20036;-62
2022/09/09 06:18:43;;;;;;;5.32;3.08;;;;;;;15.14;nan;100313.78;5054242;28;20370;-60
2022/09/09 06:21:19;;;;;;;5.32;2.70;;;;;;;15.48;nan;100355.06;5053283;28;20028;-61
2022/09/09 06:23:45;;;;;;;9.93;3.08;;;;;;;15.62;nan;100365.69;5053992;28;20041;-60
2022/09/09 06:26:12;;;;;;;10.30;3.00;;;;;;;15.67;nan;100363.63;5052727;28;20041;-61
2022/09/09 06:28:38;;;;;;;6.55;2.78;;;;;;;15.69;nan;100357.28;5054075;28;20045;-60
2022/09/09 06:31:06;;;;;;;8.55;2.80;;;;;;;15.67;nan;100355.69;5054070;28;20048;-60
2022/09/09 06:33:39;;;;;;;8.48;2.97;;;;;;;15.48;nan;100318.78;5052723;28;20296;-59
2022/09/09 06:36:05;;;;;;;6.82;2.50;;;;;;;15.84;nan;100382.03;5053524;28;20024;-58
2022/09/09 06:38:30;;;;;;;6.95;2.88;;;;;;;15.79;nan;100360.19;5053559;28;20044;-62
2022/09/09 06:40:58;;;;;;;11.55;3.05;;;;;;;15.94;nan;100383.16;5035670;28;20119;-60
2022/09/09 06:43:26;;;;;;;7.18;2.80;;;;;;;15.91;nan;100377.19;5053276;28;20104;-59
2022/09/09 06:46:02;;;;;;;7.57;3.17;;;;;;;15.56;nan;100318.31;5053628;28;20045;-60
2022/09/09 06:48:27;;;;;;;7.10;3.63;;;;;;;15.90;nan;100389.63;5052246;28;20021;-60
2022/09/09 06:51:17;;;;;;;10.85;3.20;;;;;;;15.85;nan;100361.66;5053405;28;20114;-59
2022/09/09 06:53:44;;;;;;;10.02;3.95;;;;;;;15.59;nan;100318.13;5052857;28;20029;-60
2022/09/09 06:56:09;;;;;;;11.35;4.55;;;;;;;15.94;nan;100379.63;5052420;28;20040;-61
2022/09/09 06:58:35;;;;;;;10.35;3.58;;;;;;;15.59;nan;100326.06;5049923;28;20033;-60
2022/09/09 07:01:05;;;;;;;10.95;4.05;;;;;;;15.95;nan;100373.41;5071060;28;20041;-61
2022/09/09 07:03:31;;;;;;;8.48;3.92;;;;;;;15.97;nan;100368.84;5071773;28;20037;-61
2022/09/09 07:05:56;;;;;;;9.32;4.25;;;;;;;16.02;nan;100378.25;5069639;28;20178;-61
2022/09/09 07:08:22;;;;;;;9.68;4.20;;;;;;;15.89;nan;100344.56;5060654;28;20136;-61
2022/09/09 07:10:47;;;;;;;9.45;3.92;;;;;;;16.13;nan;100374.91;5064427;28;20068;-60
2022/09/09 07:13:15;;;;;;;9.82;4.60;;;;;;;16.19;nan;100386.00;5070144;28;20115;-61
2022/09/09 07:15:41;;;;;;;10.02;4.13;;;;;;;15.91;nan;100314.34;5070446;28;20063;-60
2022/09/09 07:18:06;;;;;;;8.90;3.45;;;;;;;16.06;nan;100331.09;5071243;28;20494;-60
2022/09/09 07:20:32;;;;;;;15.63;4.80;;;;;;;16.30;nan;100388.84;5069962;28;20028;-59
2022/09/09 07:22:58;;;;;;;7.13;3.33;;;;;;;16.31;nan;100387.03;5070691;28;20029;-60
2022/09/09 07:25:23;;;;;;;12.65;4.10;;;;;;;15.96;nan;100309.63;5071369;28;20040;-60
2022/09/09 07:27:49;;;;;;;13.23;3.85;;;;;;;16.29;nan;100368.53;5070664;28;20024;-60
2022/09/09 07:30:14;;;;;;;9.25;3.30;;;;;;;15.94;nan;100318.59;5069753;28;20028;-61
2022/09/09 07:32:40;;;;;;;9.02;4.00;;;;;;;16.18;nan;100400.22;5069408;28;20090;-60
2022/09/09 07:35:05;;;;;;;8.43;3.80;;;;;;;16.16;nan;100370.28;5071163;28;20045;-60
2022/09/09 07:37:31;;;;;;;9.48;4.07;;;;;;;15.82;nan;100322.03;5053038;28;20036;-60
2022/09/09 07:39:56;;;;;;;9.23;4.05;;;;;;;16.13;nan;100382.88;5069947;28;20123;-60
2022/09/09 07:42:21;;;;;;;9.70;3.50;;;;;;;16.11;nan;100390.94;5070654;28;20075;-61
2022/09/09 07:44:47;;;;;;;10.82;4.25;;;;;;;16.09;nan;100379.56;5070840;28;20028;-61
2022/09/09 07:47:12;;;;;;;8.18;4.65;;;;;;;15.71;nan;100327.97;5070970;28;20467;-60
2022/09/09 07:49:37;;;;;;;11.68;4.15;;;;;;;15.61;nan;100314.47;5070801;28;20145;-59
2022/09/09 07:52:03;;;;;;;9.18;4.30;;;;;;;15.86;nan;100358.03;5070743;28;20140;-61
2022/09/09 07:54:28;;;;;;;10.25;4.50;;;;;;;15.97;nan;100382.97;5070738;28;20480;-60
2022/09/09 07:56:54;;;;;;;10.77;5.18;;;;;;;15.90;nan;100357.78;5070941;28;20111;-60
2022/09/09 07:59:19;;;;;;;9.32;4.80;;;;;;;16.09;nan;100389.31;5070606;28;20036;-60
2022/09/09 08:01:47;;;;;;;8.48;3.90;;;;;;;16.10;nan;100378.63;5070797;28;20124;-60
2022/09/09 08:04:23;;;;;;;12.77;5.22;;;;;;;16.07;nan;100362.88;5070644;28;20094;-61
2022/09/09 08:06:55;;;;;;;7.78;4.07;;;;;;;16.24;nan;100383.91;5070222;28;20043;-60
2022/09/09 08:09:21;;;;;;;8.48;4.00;;;;;;;15.91;nan;100314.34;5070692;28;20048;-60
2022/09/09 08:11:47;;;;;;;7.13;4.00;;;;;;;16.36;nan;100376.13;5070367;28;20024;-61
2022/09/09 08:14:13;;;;;;;11.35;3.85;;;;;;;16.02;nan;100313.69;5070630;28;20036;-61
2022/09/09 08:16:44;;;;;;;8.38;3.90;;;;;;;16.42;nan;100379.25;5070546;28;20467;-60
2022/09/09 08:19:09;;;;;;;8.27;4.03;;;;;;;16.52;nan;100392.81;5070451;28;20063;-61
2022/09/09 08:21:36;;;;;;;6.32;3.28;;;;;;;16.40;nan;100367.88;5070554;28;20076;-60
2022/09/09 08:24:02;;;;;;;7.65;3.63;;;;;;;16.52;nan;100395.47;5070542;28;20029;-60
2022/09/09 08:26:30;;;;;;;9.90;3.80;;;;;;;16.14;nan;100331.50;5070168;28;20033;-60
2022/09/09 08:28:57;;;;;;;9.60;3.67;;;;;;;16.45;nan;100388.81;5069068;28;20029;-60
2022/09/09 08:31:24;;;;;;;10.13;3.70;;;;;;;16.47;nan;100392.22;5070471;28;20032;-61
2022/09/09 08:33:49;;;;;;;8.77;3.38;;;;;;;16.10;nan;100324.66;5070612;28;20029;-60
2022/09/09 08:36:20;;;;;;;7.10;3.58;;;;;;;16.48;nan;100385.97;5069290;28;20036;-61
2022/09/09 08:38:50;;;;;;;8.35;3.70;;;;;;;16.15;nan;100333.19;5070375;28;20029;-60
2022/09/09 08:41:21;;;;;;;11.13;3.67;;;;;;;16.47;nan;100394.88;5070196;28;20078;-60
2022/09/09 08:43:47;;;;;;;;;;;;;;;16.48;nan;100392.16;5069541;28;20036;-57
2022/09/09 08:46:24;;;;;;;9.52;3.53;;;;;;;16.46;nan;100391.38;5085724;28;19977;-60
2022/09/09 08:49:01;;;;;;;8.20;4.20;;;;;;;16.45;nan;100387.03;5069124;28;20249;-60
2022/09/09 08:51:30;;;;;;;8.23;4.00;;;;;;;16.46;nan;100394.03;5069248;28;20036;-61
2022/09/09 08:53:58;;;;;;;8.45;3.67;;;;;;;16.10;nan;100343.25;5068931;28;20033;-60
2022/09/09 08:56:24;;;;;;;8.98;3.47;;;;;;;16.18;nan;100348.91;5068908;28;20036;-60
2022/09/09 08:58:51;;;;;;;5.38;3.55;;;;;;;16.35;nan;100388.53;5052271;28;20044;-61
2022/09/09 09:01:39;;;;;;;9.10;3.10;;;;;;;16.43;nan;100396.03;5070383;28;20395;-60
2022/09/09 09:04:28;;;;;;;7.85;3.63;;;;;;;16.46;nan;100394.03;5070332;28;20060;-61
2022/09/09 09:07:15;;;;;;;8.00;3.10;;;;;;;16.47;nan;100406.38;5068455;28;20111;-60
2022/09/09 09:10:02;;;;;;;9.38;3.60;;;;;;;16.43;nan;100404.00;5069975;28;20100;-62
2022/09/09 09:12:35;;;;;;;6.38;3.42;;;;;;;16.30;nan;100378.22;5069673;28;20032;-58
2022/09/09 09:15:00;;;;;;;8.90;4.32;;;;;;;16.46;nan;100404.66;5051964;28;20024;-60
2022/09/09 09:17:29;;;;;;;8.70;4.28;;;;;;;16.27;nan;100380.22;5069915;28;20395;-60
2022/09/09 09:19:54;;;;;;;7.18;3.67;;;;;;;16.38;nan;100400.78;5072486;28;20093;-60
2022/09/09 09:22:36;;;;;;;9.65;4.38;;;;;;;16.22;nan;100383.16;5073825;28;20028;-59
2022/09/09 09:25:08;;;;;;;9.55;4.70;;;;;;;16.32;nan;100397.56;5072235;28;20307;-59
2022/09/09 09:27:46;;;;;;;6.95;4.80;;;;;;;16.33;nan;100399.28;5073333;28;20032;-60
2022/09/09 09:30:22;;;;;;;6.95;3.92;;;;;;;15.95;nan;100315.00;5072156;28;20479;-60
2022/09/09 09:32:58;;;;;;;10.88;3.90;;;;;;;16.21;nan;100354.03;5072309;28;20040;-60
2022/09/09 09:35:23;;;;;;;9.43;4.43;;;;;;;16.49;nan;100382.38;5072343;28;20040;-61
2022/09/09 09:37:49;;;;;;;9.38;4.22;;;;;;;16.25;nan;100326.34;5055313;28;20464;-60
2022/09/09 09:40:19;;;;;;;5.75;3.55;;;;;;;16.81;nan;100373.22;5072052;28;20033;-61
2022/09/09 09:42:53;;;;;;;10.40;3.73;;;;;;;16.99;nan;100371.16;5071895;28;20476;-59
2022/09/09 09:45:32;;;;;;;13.50;4.55;;;;;;;17.34;nan;100375.81;5073141;28;20025;-60
2022/09/09 09:47:59;;;;;;;12.32;5.03;;;;;;;17.85;nan;100391.88;5073101;28;20051;-60
2022/09/09 09:50:25;;;;;;;8.63;3.63;;;;;;;18.06;nan;100371.72;5072994;28;20531;-60
2022/09/09 09:53:04;;;;;;;7.63;3.92;;;;;;;17.80;nan;100328.31;5071634;28;20060;-59
2022/09/09 09:55:31;;;;;;;7.47;3.65;;;;;;;16.94;nan;100206.59;5071900;28;20029;-61
2022/09/09 09:58:13;;;;;;;8.40;4.07;;;;;;;17.91;nan;100402.94;5071512;28;20040;-60
2022/09/09 10:00:48;;;;;;;9.90;3.60;;;;;;;17.69;nan;100329.97;5071515;28;20052;-59
2022/09/09 10:03:29;;;;;;;9.88;3.58;;;;;;;18.24;nan;100377.56;5071505;28;20024;-61
2022/09/09 10:05:56;;;;;;;10.67;3.37;;;;;;;18.45;nan;100378.69;5071538;28;20036;-61
2022/09/09 10:08:22;;;;;;;7.95;3.03;;;;;;;18.58;nan;100384.88;5072550;28;20059;-62
2022/09/09 10:11:06;;;;;;;7.95;2.88;;;;;;;18.67;nan;100402.00;5071412;28;20403;-59
2022/09/09 10:13:57;;;;;;;6.45;2.80;;;;;;;18.58;nan;100400.88;5072410;28;20549;-61
2022/09/09 10:16:30;;;;;;;10.63;3.30;;;;;;;18.26;nan;100354.31;5072707;28;20028;-61
2022/09/09 10:19:06;;;;;;;8.15;3.35;;;;;;;18.16;nan;100388.75;5071194;28;20036;-60
2022/09/09 10:21:46;;;;;;;12.50;4.45;;;;;;;17.88;nan;100373.88;5071067;28;20107;-60
2022/09/09 10:24:29;;;;;;;9.43;4.57;;;;;;;17.66;nan;100373.63;5072406;28;20040;-62
2022/09/09 10:27:09;;;;;;;7.57;3.67;;;;;;;17.23;nan;100372.16;5072595;28;20071;-61
2022/09/09 10:29:59;;;;;;;10.43;4.47;;;;;;;17.11;nan;100380.94;5072211;28;20068;-61
2022/09/09 10:32:31;;;;;;;10.27;4.07;;;;;;;17.02;nan;100381.56;5051510;28;20078;-60
2022/09/09 10:35:28;;;;;;;7.45;3.90;;;;;;;16.55;nan;100304.97;5050167;28;20041;-61
2022/09/09 10:37:59;;;;;;;7.70;4.72;;;;;;;17.25;nan;100375.59;5050420;28;20056;-61
2022/09/09 10:40:44;;;;;;;7.88;4.53;;;;;;;17.59;nan;100367.03;5049867;28;20029;-63
2022/09/09 10:43:38;;;;;;;6.18;3.72;;;;;;;17.84;nan;100363.53;5049363;28;20388;-61
2022/09/09 10:46:12;;;;;;;7.22;3.33;;;;;;;18.15;nan;100378.22;5051784;28;20040;-62
2022/09/09 10:49:00;;;;;;;6.50;3.50;;;;;;;18.41;nan;100372.75;5052876;28;20029;-61
2022/09/09 10:51:42;;;;;;;6.90;3.47;;;;;;;18.70;nan;100373.31;5053427;28;20128;-62
2022/09/09 10:54:19;;;;;;;5.63;3.38;;;;;;;18.77;nan;100381.69;5052602;28;20035;-62
2022/09/09 10:56:50;;;;;;;6.28;2.90;;;;;;;18.89;nan;100375.47;5051335;28;20339;-61
2022/09/09 10:59:22;;;;;;;6.60;2.78;;;;;;;18.82;nan;100335.09;5034419;28;20032;-60
2022/09/09 11:01:52;;;;;;;5.95;2.78;;;;;;;19.41;nan;100381.28;5050802;28;20028;-64
2022/09/09 11:04:34;;;;;;;4.75;2.47;;;;;;;19.48;nan;100355.84;5050865;28;20036;-60
2022/09/09 11:07:04;;;;;;;6.15;2.70;;;;;;;19.71;nan;100396.78;5052115;28;20431;-61
2022/09/09 11:09:33;;;;;;;7.70;2.67;;;;;;;19.74;nan;100401.03;5050900;28;20033;-60
2022/09/09 11:12:02;;;;;;;5.95;1.70;;;;;;;19.91;nan;100403.25;5051544;28;20029;-61
2022/09/09 11:14:42;;;;;;;4.20;2.33;;;;;;;-142.64;100.00;58178.75;5050338;28;20037;-62
2022/09/09 11:17:15;;;;;;;5.57;2.10;;;;;;;19.81;nan;100348.88;5050714;28;20112;-60
2022/09/09 11:19:43;;;;;;;6.53;2.25;;;;;;;20.10;nan;100404.38;5051779;28;20024;-59
2022/09/09 11:22:17;;;;;;;4.38;1.77;;;;;;;20.29;nan;100401.13;5052327;28;20104;-59
2022/09/09 11:25:05;;;;;;;3.78;2.08;;;;;;;19.98;nan;100367.94;5052239;28;20029;-60
2022/09/09 11:27:59;;;;;;;4.75;1.98;;;;;;;20.15;nan;100412.88;5051027;28;20747;-60
2022/09/09 11:30:49;;;;;;;5.68;1.95;;;;;;;20.11;nan;100392.72;5050393;28;20029;-62
2022/09/09 11:33:26;;;;;;;4.85;2.28;;;;;;;20.18;nan;100406.44;5052010;28;20112;-63
2022/09/09 11:36:09;;;;;;;3.80;2.20;;;;;;;19.87;nan;100408.00;5050901;28;20043;-61
2022/09/09 11:38:48;;;;;;;6.65;2.40;;;;;;;19.65;nan;100411.47;5051739;28;20091;-61
2022/09/09 11:41:14;;;;;;;6.15;2.38;;;;;;;19.40;nan;100390.28;5049589;28;20032;-60
2022/09/09 11:43:44;;;;;;;6.32;3.25;;;;;;;19.23;nan;100398.69;5051799;28;20489;-61
2022/09/09 11:46:10;;;;;;;5.57;3.05;;;;;;;18.98;nan;100388.13;5050700;28;20439;-59
2022/09/09 11:48:38;;;;;;;5.93;2.67;;;;;;;18.52;nan;100332.00;5050471;28;20086;-59
2022/09/09 11:51:05;;;;;;;8.80;3.15;;;;;;;18.60;nan;100388.25;5052043;28;20025;-61